X  Zatvori METAR podaci zračne luke     LDPL Pula Airport
Temperatura
24°C Temperatura
10°C Točka rosišta
41% Vlaga



Vjetar
40 KM/S
25 MPS
11 M/S
22 Čvorovi



70°
ISI
Trenutna situacija

Vedro Vedro
Tlak zraka 1008.92 (hPa) - 29.79 (inHg)
Vidljivost 6.2 (milje) - 10 (km)
Zračna luka
Kôd zračne luke LDPL

Lokacija: Pula Airport
Udaljenost: 39 (km)

Metar:
LDPL 281000Z 07022KT CAVOK 24/10 Q1009 NOSIG

Vrijeme: 28-05-2022 12:00 CEST